createdAt,value
2022-09-15T00:01:13.587Z,15.33
2022-09-15T00:03:42.473Z,15.26
2022-09-15T00:06:10.519Z,15.10
2022-09-15T00:08:40.412Z,15.19
2022-09-15T00:11:10.690Z,15.15
2022-09-15T00:13:40.518Z,14.85
2022-09-15T00:16:11.595Z,14.76
2022-09-15T00:18:41.642Z,14.59
2022-09-15T00:21:12.591Z,14.66
2022-09-15T00:23:41.957Z,14.71
2022-09-15T00:26:13.735Z,14.78
2022-09-15T00:28:42.653Z,14.55
2022-09-15T00:31:14.258Z,14.63
2022-09-15T00:33:42.811Z,14.49
2022-09-15T00:36:14.967Z,14.64
2022-09-15T00:38:45.067Z,14.70
2022-09-15T00:41:15.419Z,14.71
2022-09-15T00:43:47.760Z,14.76
2022-09-15T00:46:17.302Z,14.67
2022-09-15T00:48:50.080Z,14.74
2022-09-15T00:51:20.637Z,14.55
2022-09-15T00:53:51.803Z,14.58
2022-09-15T00:56:20.546Z,14.52
2022-09-15T00:58:55.806Z,14.42
2022-09-15T01:01:26.704Z,14.23
2022-09-15T01:03:55.889Z,14.39
2022-09-15T01:06:30.726Z,14.28
2022-09-15T01:09:06.913Z,14.24
2022-09-15T01:11:36.170Z,14.11
2022-09-15T01:14:04.243Z,14.02
2022-09-15T01:16:42.558Z,14.27
2022-09-15T01:19:33.636Z,14.32
2022-09-15T01:22:10.658Z,14.04
2022-09-15T01:24:57.577Z,14.12
2022-09-15T01:27:58.141Z,14.17
2022-09-15T01:30:28.060Z,14.16
2022-09-15T01:33:12.277Z,14.22
2022-09-15T01:36:00.979Z,14.14
2022-09-15T01:38:50.318Z,14.07
2022-09-15T01:41:25.378Z,13.97
2022-09-15T01:44:00.472Z,14.08
2022-09-15T01:46:34.176Z,14.08
2022-09-15T01:49:04.719Z,14.04
2022-09-15T01:51:34.804Z,13.82
2022-09-15T01:54:06.856Z,14.04
2022-09-15T01:56:34.965Z,14.16
2022-09-15T01:59:03.771Z,14.02
2022-09-15T02:01:43.774Z,14.08
2022-09-15T02:04:17.988Z,13.88
2022-09-15T02:06:53.588Z,13.69
2022-09-15T02:09:26.154Z,13.99
2022-09-15T02:12:03.612Z,14.07
2022-09-15T02:14:52.035Z,14.12
2022-09-15T02:17:22.003Z,14.02
2022-09-15T02:19:52.079Z,13.97
2022-09-15T02:22:24.904Z,14.14
2022-09-15T02:24:58.992Z,14.13
2022-09-15T02:27:30.985Z,13.99
2022-09-15T02:30:05.822Z,13.92
2022-09-15T02:32:38.340Z,14.15
2022-09-15T02:35:09.947Z,13.96
2022-09-15T02:37:39.247Z,13.92
2022-09-15T02:40:08.160Z,13.94
2022-09-15T02:42:36.415Z,13.93
2022-09-15T02:45:06.059Z,14.05
2022-09-15T02:47:35.339Z,14.20
2022-09-15T02:50:03.093Z,13.89
2022-09-15T02:52:30.990Z,13.97
2022-09-15T02:54:59.224Z,13.99
2022-09-15T02:57:27.028Z,13.82
2022-09-15T03:00:12.704Z,13.69
2022-09-15T03:02:42.829Z,13.81
2022-09-15T03:05:11.817Z,13.74
2022-09-15T03:07:40.132Z,13.77
2022-09-15T03:10:09.805Z,13.70
2022-09-15T03:12:41.131Z,13.69
2022-09-15T03:15:11.389Z,13.84
2022-09-15T03:17:42.782Z,13.81
2022-09-15T03:20:12.414Z,13.85
2022-09-15T03:22:40.277Z,13.72
2022-09-15T03:25:09.757Z,13.64
2022-09-15T03:27:38.513Z,13.71
2022-09-15T03:30:08.027Z,13.67
2022-09-15T03:32:36.753Z,13.83
2022-09-15T03:35:06.926Z,13.70
2022-09-15T03:37:35.633Z,13.34
2022-09-15T03:40:04.809Z,13.55
2022-09-15T03:42:32.723Z,13.52
2022-09-15T03:45:00.649Z,13.35
2022-09-15T03:47:28.894Z,13.49
2022-09-15T03:49:56.726Z,13.43
2022-09-15T03:52:26.143Z,13.46
2022-09-15T03:54:53.938Z,13.39
2022-09-15T03:57:22.043Z,13.41
2022-09-15T03:59:50.022Z,13.39
2022-09-15T04:02:17.925Z,13.21
2022-09-15T04:04:45.823Z,13.26
2022-09-15T04:07:13.615Z,13.18
2022-09-15T04:09:42.982Z,13.19
2022-09-15T04:12:10.937Z,13.03
2022-09-15T04:14:38.704Z,13.14
2022-09-15T04:17:06.548Z,13.06
2022-09-15T04:19:34.457Z,13.23
2022-09-15T04:22:02.362Z,13.29
2022-09-15T04:24:30.441Z,13.17
2022-09-15T04:26:59.592Z,12.99
2022-09-15T04:29:27.428Z,12.99
2022-09-15T04:31:55.279Z,12.98
2022-09-15T04:34:24.044Z,12.89
2022-09-15T04:36:52.012Z,12.92
2022-09-15T04:39:20.316Z,12.99
2022-09-15T04:41:48.135Z,13.08
2022-09-15T04:44:17.371Z,12.99
2022-09-15T04:46:45.328Z,12.93
2022-09-15T04:49:13.336Z,12.79
2022-09-15T04:51:41.218Z,12.71
2022-09-15T04:54:09.004Z,12.75
2022-09-15T04:56:36.908Z,12.79
2022-09-15T04:59:04.678Z,12.71
2022-09-15T05:01:36.028Z,12.66
2022-09-15T05:04:05.480Z,12.56
2022-09-15T05:06:34.870Z,12.52
2022-09-15T05:09:09.768Z,12.65
2022-09-15T05:11:38.739Z,12.58
2022-09-15T05:14:06.892Z,12.68
2022-09-15T05:16:36.422Z,12.71
2022-09-15T05:19:05.036Z,12.62
2022-09-15T05:21:33.540Z,12.87
2022-09-15T05:24:01.345Z,12.75
2022-09-15T05:26:30.245Z,12.73
2022-09-15T05:28:58.873Z,12.89
2022-09-15T05:31:28.077Z,12.72
2022-09-15T05:33:57.309Z,12.80
2022-09-15T05:36:25.945Z,12.82
2022-09-15T05:38:56.445Z,12.97
2022-09-15T05:41:25.926Z,13.05
2022-09-15T05:43:56.827Z,13.23
2022-09-15T05:46:26.763Z,13.24
2022-09-15T05:48:58.480Z,13.19
2022-09-15T05:51:26.735Z,13.34
2022-09-15T05:53:54.785Z,13.30
2022-09-15T05:56:22.565Z,13.28
2022-09-15T05:58:50.851Z,13.30
2022-09-15T06:01:20.782Z,13.29
2022-09-15T06:03:49.455Z,13.38
2022-09-15T06:06:18.872Z,13.48
2022-09-15T06:08:51.748Z,13.61
2022-09-15T06:11:24.129Z,13.65
2022-09-15T06:13:52.098Z,13.70
2022-09-15T06:16:22.239Z,13.75
2022-09-15T06:18:52.119Z,13.80
2022-09-15T06:21:23.890Z,13.84
2022-09-15T06:23:54.307Z,13.86
2022-09-15T06:26:22.282Z,13.98
2022-09-15T06:28:51.789Z,14.11
2022-09-15T06:31:20.297Z,14.14
2022-09-15T06:33:52.026Z,14.15
2022-09-15T06:36:23.337Z,14.19
2022-09-15T06:38:51.630Z,14.19
2022-09-15T06:41:19.996Z,14.33
2022-09-15T06:43:50.219Z,14.41
2022-09-15T06:46:19.594Z,14.40
2022-09-15T06:48:48.662Z,14.43
2022-09-15T06:51:18.308Z,14.26
2022-09-15T06:53:47.841Z,14.39
2022-09-15T06:56:17.833Z,14.59
2022-09-15T06:58:46.721Z,14.63
2022-09-15T07:01:20.170Z,14.54
2022-09-15T07:03:48.482Z,14.68
2022-09-15T07:06:16.514Z,14.60
2022-09-15T07:08:46.719Z,14.66
2022-09-15T07:11:16.341Z,14.62
2022-09-15T07:13:44.972Z,14.67
2022-09-15T07:16:14.748Z,14.72
2022-09-15T07:18:43.723Z,14.64
2022-09-15T07:21:14.547Z,14.64
2022-09-15T07:23:43.132Z,14.66
2022-09-15T07:26:12.819Z,14.60
2022-09-15T07:28:43.736Z,14.65
2022-09-15T07:31:13.364Z,14.67
2022-09-15T07:33:41.613Z,14.74
2022-09-15T07:36:11.386Z,14.70
2022-09-15T07:38:41.377Z,14.72
2022-09-15T07:41:11.594Z,14.63
2022-09-15T07:43:40.163Z,14.74
2022-09-15T07:46:09.573Z,14.76
2022-09-15T07:48:37.857Z,14.73
2022-09-15T07:51:06.274Z,14.70
2022-09-15T07:53:34.376Z,14.56
2022-09-15T07:56:02.343Z,14.71
2022-09-15T07:58:30.381Z,14.84
2022-09-15T08:01:02.640Z,14.93
2022-09-15T08:03:32.050Z,15.01
2022-09-15T08:06:00.308Z,14.94
2022-09-15T08:08:29.020Z,15.03
2022-09-15T08:10:57.536Z,14.98
2022-09-15T08:13:25.530Z,15.09
2022-09-15T08:15:53.672Z,15.02
2022-09-15T08:18:21.746Z,14.91
2022-09-15T08:20:51.019Z,15.01
2022-09-15T08:23:18.946Z,15.10
2022-09-15T08:25:47.703Z,15.18
2022-09-15T08:28:15.714Z,15.27
2022-09-15T08:30:43.753Z,15.26
2022-09-15T08:33:11.694Z,15.25
2022-09-15T08:35:39.547Z,15.15
2022-09-15T08:38:08.830Z,15.35
2022-09-15T08:40:38.674Z,15.47
2022-09-15T08:43:14.469Z,15.64
2022-09-15T08:45:50.477Z,15.85
2022-09-15T08:48:25.314Z,15.79
2022-09-15T08:50:57.129Z,15.78
2022-09-15T08:53:31.513Z,15.81
2022-09-15T08:56:05.443Z,15.77
2022-09-15T08:58:37.918Z,15.77
2022-09-15T09:01:20.974Z,15.82
2022-09-15T09:04:10.552Z,15.76
2022-09-15T09:06:49.021Z,15.92
2022-09-15T09:09:25.687Z,15.93
2022-09-15T09:12:07.914Z,16.07
2022-09-15T09:14:48.194Z,15.96
2022-09-15T09:17:30.685Z,15.81
2022-09-15T09:20:22.071Z,15.82
2022-09-15T09:22:54.086Z,15.97
2022-09-15T09:25:28.397Z,15.99
2022-09-15T09:27:59.005Z,15.91
2022-09-15T09:30:32.145Z,15.96
2022-09-15T09:33:15.603Z,16.07
2022-09-15T09:35:46.029Z,16.32
2022-09-15T09:38:21.412Z,16.26
2022-09-15T09:40:51.391Z,16.21
2022-09-15T09:43:19.348Z,16.32
2022-09-15T09:45:47.393Z,16.36
2022-09-15T09:48:19.156Z,16.51
2022-09-15T09:50:49.555Z,16.49
2022-09-15T09:53:29.895Z,16.30
2022-09-15T09:56:24.861Z,16.28
2022-09-15T09:58:53.213Z,16.49
2022-09-15T10:01:25.139Z,16.63
2022-09-15T10:04:12.811Z,16.84
2022-09-15T10:06:42.534Z,16.70
2022-09-15T10:09:16.866Z,16.71
2022-09-15T10:11:48.416Z,16.65
2022-09-15T10:14:22.851Z,16.75
2022-09-15T10:17:02.507Z,16.81
2022-09-15T10:19:34.153Z,16.90
2022-09-15T10:22:03.764Z,16.97
2022-09-15T10:24:35.703Z,17.14
2022-09-15T10:27:26.672Z,17.15
2022-09-15T10:29:55.086Z,17.10
2022-09-15T10:32:29.104Z,16.91
2022-09-15T10:35:18.662Z,17.12
2022-09-15T10:38:04.858Z,17.30
2022-09-15T10:40:35.350Z,17.26
2022-09-15T10:43:29.083Z,17.14
2022-09-15T10:46:03.120Z,17.68
2022-09-15T10:48:42.538Z,17.59
2022-09-15T10:51:24.810Z,17.56
2022-09-15T10:54:08.253Z,17.71
2022-09-15T10:56:41.565Z,17.87
2022-09-15T10:59:25.749Z,18.13
2022-09-15T11:02:27.173Z,18.00
2022-09-15T11:05:22.488Z,17.54
2022-09-15T11:08:03.189Z,17.49
2022-09-15T11:10:39.352Z,17.40
2022-09-15T11:13:17.928Z,17.49
2022-09-15T11:16:00.561Z,17.58
2022-09-15T11:18:54.107Z,17.47
2022-09-15T11:21:28.198Z,17.37
2022-09-15T11:24:21.276Z,17.31
2022-09-15T11:26:54.411Z,17.37
2022-09-15T11:29:28.723Z,17.44
2022-09-15T11:32:04.121Z,17.73
2022-09-15T11:34:36.839Z,17.64
2022-09-15T11:37:10.122Z,17.62
2022-09-15T11:39:43.062Z,17.89
2022-09-15T11:42:15.275Z,18.02
2022-09-15T11:44:46.113Z,18.08
2022-09-15T11:47:26.037Z,17.89
2022-09-15T11:49:58.143Z,17.68
2022-09-15T11:52:43.939Z,17.56
2022-09-15T11:55:19.735Z,17.41
2022-09-15T11:57:54.388Z,17.26
2022-09-15T12:00:23.010Z,17.30
2022-09-15T12:03:01.638Z,17.23
2022-09-15T12:05:34.338Z,17.16
2022-09-15T12:08:06.979Z,17.15
2022-09-15T12:10:41.056Z,17.28
2022-09-15T12:13:16.956Z,17.34
2022-09-15T12:15:45.736Z,17.74
2022-09-15T12:18:38.583Z,18.45
2022-09-15T12:21:13.750Z,17.84
2022-09-15T12:23:45.575Z,17.45
2022-09-15T12:26:19.145Z,17.43
2022-09-15T12:28:59.269Z,17.38
2022-09-15T12:31:34.108Z,17.18
2022-09-15T12:34:05.681Z,17.28
2022-09-15T12:36:44.683Z,20.00
2022-09-15T12:39:38.574Z,20.80
2022-09-15T12:42:14.735Z,20.24
2022-09-15T12:44:45.886Z,20.85
2022-09-15T12:47:25.966Z,21.50
2022-09-15T12:49:58.519Z,20.73
2022-09-15T12:52:27.173Z,21.20
2022-09-15T12:55:00.640Z,20.74
2022-09-15T12:57:33.465Z,20.99
2022-09-15T13:00:31.380Z,19.89
2022-09-15T13:03:00.567Z,19.06
2022-09-15T13:06:17.971Z,18.56
2022-09-15T13:08:52.603Z,18.33
2022-09-15T13:11:40.731Z,18.06
2022-09-15T13:14:24.115Z,18.23
2022-09-15T13:16:56.646Z,18.57
2022-09-15T13:19:29.197Z,18.95
2022-09-15T13:22:04.438Z,19.26
2022-09-15T13:24:47.869Z,19.34
2022-09-15T13:27:19.263Z,18.89
2022-09-15T13:29:50.336Z,18.80
2022-09-15T13:32:36.937Z,18.75
2022-09-15T13:35:22.853Z,18.67
2022-09-15T13:38:26.491Z,18.34
2022-09-15T13:41:46.536Z,18.27
2022-09-15T13:45:08.320Z,18.57
2022-09-15T13:47:49.590Z,18.40
2022-09-15T13:50:24.902Z,18.28
2022-09-15T13:53:05.238Z,18.24
2022-09-15T13:55:38.284Z,18.58
2022-09-15T14:01:00.943Z,19.00
2022-09-15T14:03:40.470Z,19.15
2022-09-15T14:06:17.851Z,18.76
2022-09-15T14:08:49.916Z,18.51
2022-09-15T14:11:24.586Z,18.42
2022-09-15T14:13:52.977Z,18.58
2022-09-15T14:16:24.969Z,18.75
2022-09-15T14:18:57.619Z,18.43
2022-09-15T14:21:28.319Z,18.25
2022-09-15T14:23:57.895Z,18.23
2022-09-15T14:26:28.814Z,18.10
2022-09-15T14:28:59.040Z,18.09
2022-09-15T14:31:36.165Z,18.10
2022-09-15T14:34:08.350Z,17.90
2022-09-15T14:36:39.433Z,17.72
2022-09-15T14:39:18.529Z,17.62
2022-09-15T14:41:47.929Z,17.68
2022-09-15T14:47:19.177Z,17.76
2022-09-15T14:49:48.821Z,17.81
2022-09-15T14:52:27.166Z,17.71
2022-09-15T14:55:00.898Z,17.77
2022-09-15T14:57:32.555Z,17.89
2022-09-15T15:00:05.187Z,17.87
2022-09-15T15:02:55.233Z,17.87
2022-09-15T15:05:28.648Z,17.86
2022-09-15T15:07:57.804Z,17.86
2022-09-15T15:10:32.185Z,17.79
2022-09-15T15:13:07.701Z,17.82
2022-09-15T15:15:38.070Z,17.80
2022-09-15T15:18:07.378Z,17.76
2022-09-15T15:20:36.562Z,17.69
2022-09-15T15:23:12.702Z,17.56
2022-09-15T15:25:41.712Z,17.60
2022-09-15T15:28:30.350Z,17.52
2022-09-15T15:31:13.269Z,17.52
2022-09-15T15:33:47.150Z,17.39
2022-09-15T15:36:16.437Z,17.38
2022-09-15T15:38:50.832Z,17.32
2022-09-15T15:41:22.167Z,17.37
2022-09-15T15:44:03.224Z,17.06
2022-09-15T15:46:51.730Z,16.88
2022-09-15T15:49:22.185Z,16.82
2022-09-15T15:51:51.454Z,16.64
2022-09-15T15:54:19.342Z,16.46
2022-09-15T15:56:47.500Z,16.36
2022-09-15T15:59:16.405Z,16.34
2022-09-15T16:01:45.253Z,16.30
2022-09-15T16:04:13.751Z,16.36
2022-09-15T16:06:42.077Z,16.28
2022-09-15T16:09:13.392Z,16.35
2022-09-15T16:11:43.023Z,16.13
2022-09-15T16:14:14.125Z,15.97
2022-09-15T16:16:42.312Z,16.06
2022-09-15T16:19:10.400Z,16.06
2022-09-15T16:21:40.516Z,16.12
2022-09-15T16:24:15.207Z,16.10
2022-09-15T16:26:44.495Z,16.08
2022-09-15T16:29:12.633Z,16.01
2022-09-15T16:31:42.844Z,16.00
2022-09-15T16:34:16.948Z,15.89
2022-09-15T16:36:45.001Z,15.90
2022-09-15T16:39:14.274Z,15.72
2022-09-15T16:41:42.390Z,15.76
2022-09-15T16:44:18.646Z,15.79
2022-09-15T16:46:46.964Z,15.71
2022-09-15T16:49:14.981Z,15.70
2022-09-15T16:51:42.819Z,15.62
2022-09-15T16:54:16.568Z,15.55
2022-09-15T16:56:45.487Z,15.62
2022-09-15T16:59:14.044Z,15.53
2022-09-15T17:01:42.108Z,15.51
2022-09-15T17:04:19.058Z,15.59
2022-09-15T17:06:47.474Z,15.65
2022-09-15T17:09:16.719Z,15.64
2022-09-15T17:11:44.753Z,15.61
2022-09-15T17:14:16.226Z,15.60
2022-09-15T17:16:47.252Z,15.53
2022-09-15T17:19:17.258Z,15.45
2022-09-15T17:21:45.836Z,15.50
2022-09-15T17:24:13.963Z,15.43
2022-09-15T17:26:43.317Z,15.43
2022-09-15T17:29:11.401Z,15.36
2022-09-15T17:31:39.490Z,15.35
2022-09-15T17:34:13.972Z,15.42
2022-09-15T17:36:41.958Z,15.39
2022-09-15T17:39:09.813Z,15.40
2022-09-15T17:41:38.640Z,15.29
2022-09-15T17:44:10.140Z,15.26
2022-09-15T17:46:38.015Z,15.26
2022-09-15T17:49:06.713Z,15.16
2022-09-15T17:51:35.202Z,15.19
2022-09-15T17:54:03.088Z,15.11
2022-09-15T17:56:31.031Z,15.04
2022-09-15T17:58:59.106Z,15.08
2022-09-15T18:01:28.532Z,14.91
2022-09-15T18:03:56.726Z,14.89
2022-09-15T18:06:24.602Z,14.88
2022-09-15T18:08:52.722Z,14.96
2022-09-15T18:11:21.330Z,14.96
2022-09-15T18:13:49.365Z,14.89
2022-09-15T18:16:17.718Z,14.78
2022-09-15T18:18:47.472Z,14.82
2022-09-15T18:21:25.917Z,14.89
2022-09-15T18:23:55.092Z,14.79
2022-09-15T18:26:26.311Z,14.66
2022-09-15T18:28:56.561Z,14.55
2022-09-15T18:31:25.065Z,14.59
2022-09-15T18:33:54.572Z,14.57
2022-09-15T18:36:23.406Z,14.43
2022-09-15T18:38:52.135Z,14.64
2022-09-15T18:41:21.170Z,14.38
2022-09-15T18:43:50.076Z,14.45
2022-09-15T18:46:18.926Z,14.40
2022-09-15T18:48:48.141Z,14.39
2022-09-15T18:51:23.950Z,14.32
2022-09-15T18:53:58.775Z,14.35
2022-09-15T18:56:27.076Z,14.29
2022-09-15T18:58:58.354Z,14.27
2022-09-15T19:01:27.038Z,14.34
2022-09-15T19:03:56.579Z,14.41
2022-09-15T19:06:40.428Z,14.38
2022-09-15T19:09:09.265Z,14.39
2022-09-15T19:11:38.170Z,14.47
2022-09-15T19:14:07.788Z,14.47
2022-09-15T19:16:56.475Z,14.43
2022-09-15T19:19:25.716Z,14.62
2022-09-15T19:21:55.780Z,14.53
2022-09-15T19:24:25.492Z,14.48
2022-09-15T19:26:54.818Z,14.59
2022-09-15T19:29:23.597Z,14.56
2022-09-15T19:31:51.854Z,14.63
2022-09-15T19:34:20.745Z,14.47
2022-09-15T19:36:48.814Z,14.43
2022-09-15T19:39:18.509Z,14.50
2022-09-15T19:41:46.938Z,14.55
2022-09-15T19:44:15.939Z,14.39
2022-09-15T19:46:44.068Z,14.35
2022-09-15T19:49:12.412Z,14.30
2022-09-15T19:51:40.841Z,14.26
2022-09-15T19:54:09.031Z,14.31
2022-09-15T19:56:39.571Z,14.24
2022-09-15T19:59:07.939Z,14.24
2022-09-15T20:01:36.058Z,14.24
2022-09-15T20:04:04.122Z,14.33
2022-09-15T20:06:33.105Z,14.30
2022-09-15T20:09:01.811Z,14.44
2022-09-15T20:11:30.763Z,14.45
2022-09-15T20:14:01.558Z,14.35
2022-09-15T20:16:30.135Z,14.33
2022-09-15T20:18:58.592Z,14.21
2022-09-15T20:21:48.713Z,14.36
2022-09-15T20:24:17.461Z,14.33
2022-09-15T20:26:45.448Z,14.31
2022-09-15T20:29:14.835Z,14.32
2022-09-15T20:31:43.500Z,14.29
2022-09-15T20:34:11.353Z,14.20
2022-09-15T20:36:39.801Z,14.11
2022-09-15T20:39:10.552Z,14.12
2022-09-15T20:41:39.349Z,14.18
2022-09-15T20:44:09.347Z,14.14
2022-09-15T20:46:38.668Z,14.11
2022-09-15T20:49:07.442Z,14.10
2022-09-15T20:51:35.464Z,14.14
2022-09-15T20:54:05.306Z,14.09
2022-09-15T20:56:34.979Z,14.13
2022-09-15T20:59:05.096Z,14.02
2022-09-15T21:01:36.257Z,13.93
2022-09-15T21:04:06.848Z,14.03
2022-09-15T21:06:35.478Z,14.00
2022-09-15T21:09:04.570Z,13.92
2022-09-15T21:11:32.619Z,13.93
2022-09-15T21:14:00.583Z,13.87
2022-09-15T21:16:30.424Z,13.88
2022-09-15T21:18:59.874Z,13.79
2022-09-15T21:21:30.891Z,13.88
2022-09-15T21:24:03.468Z,13.85
2022-09-15T21:26:33.238Z,13.80
2022-09-15T21:29:01.599Z,13.65
2022-09-15T21:31:31.910Z,13.69
2022-09-15T21:34:00.991Z,13.70
2022-09-15T21:36:31.630Z,13.80
2022-09-15T21:39:02.654Z,13.80
2022-09-15T21:41:30.866Z,13.67
2022-09-15T21:44:00.751Z,13.72
2022-09-15T21:46:30.524Z,13.72
2022-09-15T21:48:59.974Z,13.76
2022-09-15T21:51:30.964Z,13.78
2022-09-15T21:54:00.220Z,13.77
2022-09-15T21:56:30.506Z,13.69
2022-09-15T21:58:58.464Z,13.71
2022-09-15T22:01:27.821Z,13.65
2022-09-15T22:03:57.289Z,13.67
2022-09-15T22:06:27.546Z,13.62
2022-09-15T22:08:57.266Z,13.50
2022-09-15T22:11:25.245Z,13.50
2022-09-15T22:13:53.131Z,13.52
2022-09-15T22:16:23.324Z,13.40
2022-09-15T22:18:52.155Z,13.39
2022-09-15T22:21:22.294Z,13.41
2022-09-15T22:23:51.868Z,13.36
2022-09-15T22:26:23.183Z,13.43
2022-09-15T22:28:51.064Z,13.43
2022-09-15T22:31:20.680Z,13.34
2022-09-15T22:33:48.526Z,13.36
2022-09-15T22:36:18.281Z,13.33
2022-09-15T22:38:46.247Z,13.29
2022-09-15T22:41:16.713Z,13.31
2022-09-15T22:43:48.758Z,13.26
2022-09-15T22:46:18.759Z,13.26
2022-09-15T22:48:46.616Z,13.21
2022-09-15T22:51:15.671Z,13.20
2022-09-15T22:53:44.030Z,13.22
2022-09-15T22:56:15.102Z,13.14
2022-09-15T22:58:47.222Z,13.19
2022-09-15T23:01:17.005Z,13.18
2022-09-15T23:03:47.526Z,13.08
2022-09-15T23:06:15.711Z,13.09
2022-09-15T23:08:43.665Z,13.12
2022-09-15T23:11:13.323Z,13.05
2022-09-15T23:13:41.929Z,13.04
2022-09-15T23:16:11.630Z,12.98
2022-09-15T23:18:39.856Z,13.03
2022-09-15T23:21:09.596Z,12.95
2022-09-15T23:23:40.412Z,12.93
2022-09-15T23:26:10.076Z,12.89
2022-09-15T23:28:39.924Z,12.98
2022-09-15T23:31:09.118Z,13.01
2022-09-15T23:33:38.741Z,13.00
2022-09-15T23:36:08.943Z,12.99
2022-09-15T23:38:41.848Z,12.83
2022-09-15T23:41:10.559Z,12.87
2022-09-15T23:43:38.513Z,12.79
2022-09-15T23:46:06.429Z,12.83
2022-09-15T23:48:34.243Z,12.76
2022-09-15T23:51:03.597Z,12.83
2022-09-15T23:53:31.473Z,12.71
2022-09-15T23:55:59.612Z,12.81
2022-09-15T23:58:27.744Z,12.75
